createdAt,value
2023-02-23T00:02:59.857Z,19.30
2023-02-23T00:15:00.222Z,18.80
2023-02-23T00:27:00.701Z,18.10
2023-02-23T00:39:01.147Z,25.90
2023-02-23T00:51:01.610Z,23.80
2023-02-23T01:03:02.023Z,21.80
2023-02-23T01:15:02.510Z,21.00
2023-02-23T01:27:02.982Z,20.70
2023-02-23T01:39:03.410Z,21.10
2023-02-23T01:51:03.852Z,18.50
2023-02-23T02:03:04.286Z,19.00
2023-02-23T02:15:04.813Z,20.40
2023-02-23T02:27:05.236Z,18.70
2023-02-23T02:39:05.671Z,17.30
2023-02-23T02:51:06.137Z,15.90
2023-02-23T03:03:06.596Z,15.10
2023-02-23T03:15:07.013Z,15.20
2023-02-23T03:27:07.519Z,16.70
2023-02-23T03:39:07.925Z,17.30
2023-02-23T03:51:08.410Z,16.70
2023-02-23T04:03:08.821Z,17.10
2023-02-23T04:15:09.304Z,18.00
2023-02-23T04:27:09.725Z,18.20
2023-02-23T04:39:10.237Z,18.60
2023-02-23T04:51:10.642Z,18.60
2023-02-23T05:03:11.104Z,18.50
2023-02-23T05:15:11.535Z,18.50
2023-02-23T05:27:12.005Z,18.50
2023-02-23T05:39:12.766Z,18.70
2023-02-23T05:51:12.927Z,20.20
2023-02-23T06:03:13.357Z,19.50
2023-02-23T06:15:13.831Z,20.10
2023-02-23T06:27:14.254Z,20.80
2023-02-23T06:39:14.736Z,24.50
2023-02-23T06:51:15.107Z,28.80
2023-02-23T07:03:15.639Z,30.70
2023-02-23T07:15:16.060Z,39.00
2023-02-23T07:27:16.488Z,35.80
2023-02-23T07:39:16.977Z,30.50
2023-02-23T07:51:17.798Z,27.10
2023-02-23T08:03:17.885Z,28.10
2023-02-23T08:15:18.346Z,25.40
2023-02-23T08:27:18.783Z,22.80
2023-02-23T08:39:19.210Z,22.20
2023-02-23T08:51:19.996Z,21.70
2023-02-23T09:03:20.146Z,21.80
2023-02-23T09:15:20.581Z,24.80
2023-02-23T09:27:21.054Z,26.80
2023-02-23T09:39:32.330Z,29.10
2023-02-23T09:51:22.166Z,28.20
2023-02-23T10:03:22.380Z,25.30
2023-02-23T10:15:22.867Z,22.90
2023-02-23T10:27:23.282Z,19.00
2023-02-23T10:39:24.347Z,18.50
2023-02-23T10:51:24.203Z,16.30
2023-02-23T11:03:25.410Z,17.00
2023-02-23T11:15:35.705Z,15.70
2023-02-23T11:27:25.648Z,16.10
2023-02-23T11:39:26.003Z,16.50
2023-02-23T11:51:26.504Z,16.20
2023-02-23T12:03:26.891Z,16.50
2023-02-23T12:15:27.412Z,17.50
2023-02-23T12:27:27.891Z,17.10
2023-02-23T12:39:28.327Z,16.80
2023-02-23T12:51:28.728Z,17.10
2023-02-23T13:03:29.202Z,16.60
2023-02-23T13:15:29.629Z,18.10
2023-02-23T13:27:30.618Z,17.40
2023-02-23T13:39:30.563Z,17.80
2023-02-23T13:51:31.016Z,17.40
2023-02-23T14:03:31.463Z,17.20
2023-02-23T14:15:31.936Z,17.70
2023-02-23T14:27:41.084Z,20.00
2023-02-23T14:39:32.829Z,17.40
2023-02-23T14:51:33.384Z,22.90
2023-02-23T15:03:33.780Z,22.10
2023-02-23T15:15:34.188Z,18.70
2023-02-23T15:27:34.684Z,18.80
2023-02-23T15:39:35.081Z,19.50
2023-02-23T15:51:35.595Z,21.60
2023-02-23T16:03:36.032Z,20.20
2023-02-23T16:15:36.486Z,22.00
2023-02-23T16:27:36.922Z,16.70
2023-02-23T16:39:37.391Z,23.50
2023-02-23T16:51:37.811Z,26.30
2023-02-23T17:03:47.405Z,23.10
2023-02-23T17:15:38.713Z,35.40
2023-02-23T17:27:39.242Z,25.70
2023-02-23T17:39:39.605Z,22.60
2023-02-23T17:51:40.080Z,23.90
2023-02-23T18:03:40.577Z,23.40
2023-02-23T18:15:41.018Z,24.60
2023-02-23T18:27:41.426Z,26.90
2023-02-23T18:39:41.900Z,29.60
2023-02-23T18:51:43.373Z,26.20
2023-02-23T19:03:42.806Z,35.20
2023-02-23T19:15:43.260Z,28.10
2023-02-23T19:27:43.698Z,46.30
2023-02-23T19:39:44.168Z,29.60
2023-02-23T19:51:44.617Z,32.10
2023-02-23T20:03:45.081Z,30.90
2023-02-23T20:15:45.534Z,28.50
2023-02-23T20:27:45.975Z,32.00
2023-02-23T20:39:46.433Z,32.10
2023-02-23T20:51:46.894Z,30.50
2023-02-23T21:03:47.371Z,24.10
2023-02-23T21:15:47.776Z,28.00
2023-02-23T21:27:48.263Z,25.10
2023-02-23T21:39:48.698Z,25.90
2023-02-23T21:51:49.114Z,24.20
2023-02-23T22:03:49.613Z,34.00
2023-02-23T22:15:50.121Z,34.20
2023-02-23T22:27:50.532Z,33.80
2023-02-23T22:39:50.972Z,30.00
2023-02-23T22:51:51.390Z,40.20
2023-02-23T23:03:51.929Z,39.90
2023-02-23T23:15:55.211Z,42.00
2023-02-23T23:27:52.776Z,47.40
2023-02-23T23:39:53.197Z,41.40
2023-02-23T23:51:53.709Z,43.50
